Temporali Dal: 21-05-2018 10:00 Fino a: 17:59 Avvisi per: Temporali Livello: Giallo info button
 

Nearby METAR Reports

 

LEZL - Sevilla, Spain
Distance from station: ENE 8km
Dati ricevuti: 21/05/2018 01:00
Sereno
Sereno
 Vento da S
Vento: S 7 km/h
Temperatura: 17°C
P.to Rugiada: 14°C
Umidità: 83%
Barometro: 1013 hPa
Summary: Sereno
Visibility: greater than 10 km
2018/05/20 23:00 LEZL 202300Z 19004KT CAVOK 17/14 Q1013 NOSIG
LEMO - Morón, Spain
Distance from station: SE 43km
Dati ricevuti: 21/05/2018 01:00
Sereno
Sereno
 Vento da calm
Vento: Calma
Temperatura: 14°C
P.to Rugiada: 14°C
Umidità: 100%
Barometro: 1013 hPa
Summary: Sereno
Visibility: greater than 10 km
2018/05/20 23:00 LEMO 202300Z 00000KT CAVOK 14/14 Q1013 NOSIG
LEJR - Jeréz, Spain
Distance from station: S 71km
Dati ricevuti: 21/05/2018 01:30
Sereno
Sereno
 Vento da varies
Vento: varies 2 km/h
Temperatura: 16°C
P.to Rugiada: 14°C
Umidità: 88%
Barometro: 1013 hPa
Summary: Sereno
Visibility: greater than 10 km
2018/05/20 23:30 LEJR 202330Z AUTO VRB01KT CAVOK 16/14 Q1013
 
LERT - Rota, Spain
Distance from station: SSO 89km
Dati ricevuti: 21/05/2018 01:00
Sereno
Sereno
 Vento da NNO
Vento: NNO 2 km/h
Temperatura: 18°C
P.to Rugiada: 14°C
Umidità: 78%
Barometro: 1013 hPa
Summary: Sereno
Visibility: greater than 10 km
2018/05/20 23:00 LERT 202300Z 34001KT CAVOK 18/14 Q1013 NOSIG
LEMG - Málaga, Spain
Distance from station: ESE 157km
Dati ricevuti: 21/05/2018 01:00
Few Clouds
Few Clouds
 Vento da ONO
Vento: ONO 4 km/h
Temperatura: 16°C
P.to Rugiada: 13°C
Umidità: 83%
Barometro: 1013 hPa
Clouds: Few Clouds
Visibility: 10 km
Cloud details: Few Clouds 2286 m
2018/05/20 23:00 LEMG 202300Z 29002KT 9999 FEW075 16/13 Q1013 NOSIG
LEBA - Córdoba, Spain
Distance from station: ENE 115km
Dati ricevuti: 21/05/2018 01:00
Sereno
Sereno
 Vento da varies
Vento: varies 2 km/h
Temperatura: 15°C
P.to Rugiada: 13°C
Umidità: 88%
Barometro: 1013 hPa
Summary: Sereno
Visibility: greater than 10 km
2018/05/20 23:00 LEBA 202300Z AUTO VRB01KT CAVOK 15/13 Q1013
 
LEGR - Granada, Spain
Distance from station: E 198km
Dati ricevuti: 21/05/2018 01:00
Mist
Mist
 Vento da varies
Vento: varies 2 km/h
Temperatura: 12°C
P.to Rugiada: 10°C
Umidità: 88%
Barometro: 1014 hPa
Summary: Mist
Visibility: 2 km
2018/05/20 23:00 LEGR 202300Z AUTO VRB01KT 1900 BR ////// 12/10 Q1014
LEAM - Almería, Spain
Distance from station: E 326km
Dati ricevuti: 21/05/2018 01:00
Sereno
Sereno
 Vento da varies
Vento: varies 4 km/h
Temperatura: 18°C
P.to Rugiada: 12°C
Umidità: 68%
Barometro: 1013 hPa
Clouds: Sereno
Visibility: 10 km
2018/05/20 23:00 LEAM 202300Z AUTO VRB02KT 9999 NCD 18/12 Q1013
LEMD - Madrid/Barajas, Spain
Distance from station: NNE 402km
Dati ricevuti: 21/05/2018 01:00
Sereno
Sereno
 Vento da NNO
Vento: NNO 6 km/h
Temperatura: 16°C
P.to Rugiada: 10°C
Umidità: 68%
Barometro: 1013 hPa
Summary: Sereno
Visibility: greater than 10 km
2018/05/20 23:00 LEMD 202300Z 34003KT 300V020 CAVOK 16/10 Q1013 NOSIG
 
LEVD - Valladolid, Spain
Distance from station: N 492km
Dati ricevuti: 20/05/2018 21:30
NOT Current
Sereno
Sereno
 Vento da S
Vento: S 15 km/h
Temperatura: 18°C
P.to Rugiada: 7°C
Umidità: 49%
Barometro: 1012 hPa
Summary: Sereno
Visibility: greater than 10 km
2018/05/20 19:30 LEVD 201930Z 19008KT CAVOK 18/07 Q1012
LEBL - Barcelona, Spain
Distance from station: NE 816km
Dati ricevuti: 21/05/2018 01:00
Sereno
Sereno
 Vento da ENE
Vento: ENE 6 km/h
Temperatura: 17°C
P.to Rugiada: 15°C
Umidità: 88%
Barometro: 1013 hPa
Summary: Sereno
Visibility: greater than 10 km
2018/05/20 23:00 LEBL 202300Z 06003KT CAVOK 17/15 Q1013 NOSIG
LEVC - Valencia, Spain
Distance from station: ENE 535km
Dati ricevuti: 21/05/2018 01:00
Few Clouds
Few Clouds
 Vento da ONO
Vento: ONO 6 km/h
Temperatura: 18°C
P.to Rugiada: 14°C
Umidità: 78%
Barometro: 1013 hPa
Clouds: Few Clouds
Visibility: 10 km
Cloud details: Few Clouds 549 m
2018/05/20 23:00 LEVC 202300Z 29003KT 9999 FEW018 18/14 Q1013 NOSIG